createdAt,value
2022-11-20T00:00:19.317Z,100615.78
2022-11-20T00:05:21.017Z,100615.56
2022-11-20T00:10:22.559Z,100614.03
2022-11-20T00:15:24.152Z,100611.16
2022-11-20T00:20:25.832Z,100608.00
2022-11-20T00:25:27.435Z,100603.75
2022-11-20T00:30:29.036Z,100605.41
2022-11-20T00:35:30.947Z,100619.19
2022-11-20T00:40:32.586Z,100613.47
2022-11-20T00:45:34.136Z,100611.53
2022-11-20T00:50:35.783Z,100588.50
2022-11-20T00:55:37.394Z,100591.53
2022-11-20T01:00:39.102Z,100602.31
2022-11-20T01:05:40.640Z,100601.22
2022-11-20T01:10:42.179Z,100606.38
2022-11-20T01:15:43.792Z,100603.69
2022-11-20T01:20:45.363Z,100610.75
2022-11-20T01:25:46.949Z,100602.75
2022-11-20T01:30:48.476Z,100599.31
2022-11-20T01:35:50.005Z,100603.66
2022-11-20T01:40:56.040Z,100599.69
2022-11-20T01:46:00.540Z,100595.84
2022-11-20T01:51:04.874Z,100597.22
2022-11-20T01:56:10.647Z,100595.56
2022-11-20T02:01:13.721Z,100573.19
2022-11-20T02:06:32.432Z,100565.00
2022-11-20T02:11:33.981Z,100565.41
2022-11-20T02:16:47.446Z,100561.34
2022-11-20T02:22:05.668Z,100557.13
2022-11-20T02:27:10.976Z,100571.44
2022-11-20T02:32:39.519Z,100567.47
2022-11-20T02:37:41.775Z,100575.47
2022-11-20T02:42:43.444Z,100573.84
2022-11-20T02:47:45.027Z,100560.63
2022-11-20T02:52:46.629Z,100556.53
2022-11-20T02:57:48.122Z,100550.53
2022-11-20T03:02:49.680Z,100545.09
2022-11-20T03:07:51.355Z,100544.13
2022-11-20T03:12:56.058Z,100545.44
2022-11-20T03:17:57.681Z,100547.06
2022-11-20T03:22:59.211Z,100540.63
2022-11-20T03:28:00.778Z,100538.72
2022-11-20T03:33:02.369Z,100540.06
2022-11-20T03:38:03.954Z,100532.56
2022-11-20T03:43:05.504Z,100540.47
2022-11-20T03:48:07.021Z,100537.34
2022-11-20T03:53:08.619Z,100529.56
2022-11-20T03:58:10.938Z,100511.66
2022-11-20T04:03:12.465Z,100523.34
2022-11-20T04:08:14.023Z,100515.34
2022-11-20T04:13:15.870Z,100507.84
2022-11-20T04:18:17.440Z,100516.59
2022-11-20T04:23:19.033Z,100506.94
2022-11-20T04:28:21.233Z,100501.41
2022-11-20T04:33:22.756Z,100503.59
2022-11-20T04:38:24.275Z,100512.59
2022-11-20T04:43:25.965Z,100509.13
2022-11-20T04:48:30.021Z,100503.84
2022-11-20T04:53:31.753Z,100500.31
2022-11-20T04:58:34.482Z,100506.56
2022-11-20T05:03:41.001Z,100508.78
2022-11-20T05:08:43.903Z,100518.97
2022-11-20T05:13:45.724Z,100520.56
2022-11-20T05:18:48.316Z,100528.59
2022-11-20T05:23:50.002Z,100524.88
2022-11-20T05:28:52.388Z,100516.78
2022-11-20T05:33:54.370Z,100518.44
2022-11-20T05:39:01.264Z,100526.84
2022-11-20T05:44:03.285Z,100518.75
2022-11-20T05:49:04.935Z,100518.69
2022-11-20T05:54:06.519Z,100518.94
2022-11-20T05:59:08.193Z,100527.25
2022-11-20T06:04:09.835Z,100527.53
2022-11-20T06:09:11.351Z,100522.72
2022-11-20T06:14:12.925Z,100530.50
2022-11-20T06:19:14.523Z,100520.16
2022-11-20T06:24:16.311Z,100515.56
2022-11-20T06:29:18.021Z,100522.56
2022-11-20T06:34:19.711Z,100518.75
2022-11-20T06:39:21.483Z,100518.84
2022-11-20T06:44:23.345Z,100513.56
2022-11-20T06:49:25.290Z,100529.13
2022-11-20T06:54:26.931Z,100539.09
2022-11-20T06:59:28.496Z,100535.66
2022-11-20T07:04:30.006Z,100532.00
2022-11-20T07:09:31.520Z,100538.88
2022-11-20T07:14:33.140Z,100546.72
2022-11-20T07:19:34.667Z,100552.03
2022-11-20T07:24:36.290Z,100552.66
2022-11-20T07:29:37.876Z,100560.03
2022-11-20T07:34:39.401Z,100559.16
2022-11-20T07:39:41.089Z,100559.53
2022-11-20T07:44:42.661Z,100555.59
2022-11-20T07:49:44.346Z,100559.47
2022-11-20T07:54:45.963Z,100565.06
2022-11-20T07:59:47.557Z,100556.03
2022-11-20T08:04:49.352Z,100555.28
2022-11-20T08:09:51.081Z,100563.84
2022-11-20T08:14:52.713Z,100561.63
2022-11-20T08:19:54.289Z,100554.03
2022-11-20T08:24:55.834Z,100555.16
2022-11-20T08:29:57.490Z,100552.88
2022-11-20T08:34:59.190Z,100562.28
2022-11-20T08:40:00.798Z,100563.38
2022-11-20T08:45:02.447Z,100559.94
2022-11-20T08:50:04.169Z,100566.97
2022-11-20T08:55:07.394Z,100566.31
2022-11-20T09:00:11.498Z,100557.88
2022-11-20T09:05:13.184Z,100567.91
2022-11-20T09:10:30.166Z,100561.81
2022-11-20T09:15:32.348Z,100565.47
2022-11-20T09:20:33.925Z,100553.28
2022-11-20T09:25:35.564Z,100548.66
2022-11-20T09:30:37.161Z,100542.66
2022-11-20T09:35:38.821Z,100545.78
2022-11-20T09:40:47.858Z,100536.25
2022-11-20T09:46:07.729Z,100533.56
2022-11-20T09:51:33.952Z,100550.28
2022-11-20T09:56:40.019Z,100547.81
2022-11-20T10:01:41.644Z,100533.06
2022-11-20T10:07:32.622Z,100541.06
2022-11-20T10:13:03.079Z,100542.44
2022-11-20T10:18:31.713Z,100538.19
2022-11-20T10:24:05.276Z,100524.50
2022-11-20T10:29:19.389Z,100514.63
2022-11-20T10:34:34.736Z,100506.41
2022-11-20T10:39:45.552Z,100480.53
2022-11-20T10:44:56.551Z,100483.44
2022-11-20T10:50:13.815Z,100475.19
2022-11-20T10:55:53.204Z,100471.81
2022-11-20T11:01:05.250Z,100462.63
2022-11-20T11:06:21.917Z,100448.03
2022-11-20T11:11:32.798Z,100442.31
2022-11-20T11:16:34.981Z,100434.38
2022-11-20T11:21:36.662Z,100417.66
2022-11-20T11:26:38.520Z,100427.00
2022-11-20T11:31:40.216Z,100411.03
2022-11-20T11:36:43.239Z,100403.91
2022-11-20T11:41:45.226Z,100399.03
2022-11-20T11:46:57.509Z,100390.69
2022-11-20T11:52:17.102Z,100387.31
2022-11-20T11:57:50.880Z,100389.91
2022-11-20T12:03:04.024Z,100371.03
2022-11-20T12:08:24.371Z,100365.47
2022-11-20T12:13:31.675Z,100352.31
2022-11-20T12:18:33.906Z,100349.56
2022-11-20T12:23:53.654Z,100343.88
2022-11-20T12:29:02.601Z,100329.72
2022-11-20T12:34:39.103Z,100324.50
2022-11-20T12:39:49.404Z,100316.53
2022-11-20T12:45:16.573Z,100319.44
2022-11-20T12:51:00.275Z,100308.72
2022-11-20T12:56:04.054Z,100307.88
2022-11-20T13:01:20.527Z,100297.53
2022-11-20T13:06:22.569Z,100286.84
2022-11-20T13:11:42.282Z,100270.28
2022-11-20T13:16:53.225Z,100260.03
2022-11-20T13:21:54.865Z,100250.69
2022-11-20T13:27:14.580Z,100248.50
2022-11-20T13:32:18.856Z,100234.94
2022-11-20T13:37:31.651Z,100233.16
2022-11-20T13:42:59.544Z,100223.81
2022-11-20T13:48:05.885Z,100217.50
2022-11-20T13:53:19.109Z,100199.28
2022-11-20T13:58:32.658Z,100196.31
2022-11-20T14:04:04.518Z,100182.13
2022-11-20T14:08:57.531Z,100168.28
2022-11-20T14:14:01.550Z,100163.72
2022-11-20T14:19:21.876Z,100164.47
2022-11-20T14:24:25.596Z,100151.63
2022-11-20T14:29:38.516Z,100140.81
2022-11-20T14:34:44.419Z,100136.28
2022-11-20T14:39:51.937Z,100127.13
2022-11-20T14:44:58.323Z,100131.03
2022-11-20T14:50:04.649Z,100119.16
2022-11-20T14:55:25.618Z,100108.03
2022-11-20T15:00:28.027Z,100101.06
2022-11-20T15:05:49.208Z,100092.75
2022-11-20T15:10:52.667Z,100088.22
2022-11-20T15:15:59.588Z,100085.22
2022-11-20T15:21:10.956Z,100096.66
2022-11-20T15:26:19.503Z,100081.75
2022-11-20T15:31:23.937Z,100084.66
2022-11-20T15:36:28.621Z,100077.34
2022-11-20T15:41:30.321Z,100064.50
2022-11-20T15:46:37.160Z,100059.47
2022-11-20T15:51:39.349Z,100038.16
2022-11-20T15:56:40.971Z,100027.50
2022-11-20T16:01:43.486Z,100012.16
2022-11-20T16:06:45.141Z,100009.28
2022-11-20T16:11:48.036Z,100003.34
2022-11-20T16:16:49.702Z,99984.38
2022-11-20T16:21:51.445Z,99984.38
2022-11-20T16:26:54.721Z,99979.06
2022-11-20T16:31:57.696Z,99980.34
2022-11-20T16:36:59.640Z,99979.19
2022-11-20T16:42:05.412Z,99978.19
2022-11-20T16:47:06.978Z,99965.69
2022-11-20T16:52:08.722Z,99955.00
2022-11-20T16:57:10.371Z,99950.31
2022-11-20T17:02:11.869Z,99941.69
2022-11-20T17:07:13.492Z,99925.53
2022-11-20T17:12:15.229Z,99928.66
2022-11-20T17:17:17.162Z,99911.25
2022-11-20T17:22:18.813Z,99903.88
2022-11-20T17:27:20.401Z,99880.31
2022-11-20T17:32:22.186Z,99873.94
2022-11-20T17:37:23.940Z,99848.34
2022-11-20T17:42:25.593Z,99858.59
2022-11-20T17:47:27.175Z,99845.84
2022-11-20T17:52:28.813Z,99837.47
2022-11-20T17:57:30.399Z,99831.72
2022-11-20T18:02:32.202Z,99815.47
2022-11-20T18:07:40.173Z,99794.44
2022-11-20T18:12:43.205Z,99795.19
2022-11-20T18:17:44.976Z,99795.34
2022-11-20T18:22:46.521Z,99787.59
2022-11-20T18:27:48.055Z,99782.47
2022-11-20T18:32:49.805Z,99780.66
2022-11-20T18:37:51.358Z,99767.88
2022-11-20T18:42:53.021Z,99776.97
2022-11-20T18:47:54.765Z,99783.03
2022-11-20T18:52:56.387Z,99780.84
2022-11-20T18:57:58.016Z,99768.28
2022-11-20T19:02:59.741Z,99767.56
2022-11-20T19:08:01.451Z,99750.41
2022-11-20T19:13:03.169Z,99755.69
2022-11-20T19:18:04.850Z,99752.63
2022-11-20T19:23:06.447Z,99742.75
2022-11-20T19:28:08.327Z,99748.69
2022-11-20T19:33:09.984Z,99742.03
2022-11-20T19:38:11.596Z,99747.69
2022-11-20T19:43:13.195Z,99738.94
2022-11-20T19:48:14.675Z,99734.69
2022-11-20T19:53:16.254Z,99735.13
2022-11-20T19:58:18.095Z,99739.38
2022-11-20T20:03:20.099Z,99740.78
2022-11-20T20:08:21.633Z,99737.59
2022-11-20T20:13:24.050Z,99741.25
2022-11-20T20:18:25.921Z,99737.72
2022-11-20T20:23:27.516Z,99730.88
2022-11-20T20:28:29.697Z,99741.31
2022-11-20T20:33:31.345Z,99744.34
2022-11-20T20:38:33.743Z,99750.00
2022-11-20T20:43:36.170Z,99746.78
2022-11-20T20:48:37.710Z,99743.94
2022-11-20T20:53:39.219Z,99745.75
2022-11-20T20:58:41.075Z,99746.97
2022-11-20T21:03:42.694Z,99740.53
2022-11-20T21:08:44.776Z,99743.75
2022-11-20T21:13:47.453Z,99751.41
2022-11-20T21:18:49.165Z,99760.88
2022-11-20T21:23:50.686Z,99750.97
2022-11-20T21:28:52.428Z,99768.41
2022-11-20T21:33:55.698Z,99762.09
2022-11-20T21:38:58.357Z,99769.31
2022-11-20T21:44:30.588Z,99767.69
2022-11-20T21:49:23.530Z,99775.09
2022-11-20T21:54:25.522Z,99772.28
2022-11-20T21:59:27.346Z,99768.06
2022-11-20T22:04:29.000Z,99771.84
2022-11-20T22:09:30.497Z,99785.13
2022-11-20T22:14:32.088Z,99778.13
2022-11-20T22:19:33.639Z,99776.91
2022-11-20T22:24:35.178Z,99779.75
2022-11-20T22:29:36.688Z,99791.88
2022-11-20T22:34:38.276Z,99787.28
2022-11-20T22:39:39.840Z,99791.31
2022-11-20T22:44:41.586Z,99815.69
2022-11-20T22:49:43.124Z,99811.66
2022-11-20T22:54:44.644Z,99824.84
2022-11-20T22:59:46.284Z,99819.22
2022-11-20T23:04:47.778Z,99832.03
2022-11-20T23:09:49.311Z,99834.38
2022-11-20T23:14:50.787Z,99838.59
2022-11-20T23:19:52.341Z,99836.97
2022-11-20T23:24:53.960Z,99833.72
2022-11-20T23:29:55.545Z,99851.97
2022-11-20T23:34:57.143Z,99836.44
2022-11-20T23:40:01.543Z,99841.41
2022-11-20T23:45:03.332Z,99840.66
2022-11-20T23:50:05.286Z,99832.97
2022-11-20T23:55:07.191Z,99844.34
